Airfield :
LOGIN :

Register | Disclaimer

   EN    FR    IT 

 










Legend :    VFR   Marginal VFR   IFR   Intensive IFR   Very Intensive IFR
Visi :
Ceiling :
>= 8 km
>= 3000ft
5 to 8 km
1000 to 3000 ft
1500m to 5 km
500 to 1000 ft
800 to 1500m
200 to 500 ft
< 800m
< 200 ft
Symbols :   Thunderstorms  Fog  Heavy snow  Heavy precipitations  Wind > 20 kt
SIGMETs :     Misc.  Thunderstorms  Icing  Turbulence  Mountain Waves  Volcanic Ashes






- Airport Elevation : 20 ft
- IATA code : BJA


DAAE - Soummam - Bejaia

CURRENT METAR :
  • 250600Z 24006KT 9999 FEW016 BKN090 12/09 Q1014

EXPIRED METARs :
  • 250500Z 28008KT 9999 FEW016 SCT040 12/09 Q1014

TAF TAF DAAE
Valid from the 25 at 06:00 until the 26 at 06:00 UTC


250500Z 2506/2606 28008KT 9999 FEW020 SCT090
PROB40
TEMPO 2509/2518 FEW026TCU
BECMG 2516/2518 28016KT 5000 -TSRA FEW020CB OVC030
TEMPO 2518/2606 3000 -SHRA SCT020CB



MET'MAP, your aeronautical weather chart ! - Copyright ORBIFLY December 2007 - Disclaimer

ORBIFLY MET'MAP TEAM :

Programming & Development : Alexandra Zaïnal
Concept & original design : Baudouin d'Aumeries
Assistance for programming : Marc-Olivier Méhu
Technical & hardware support : Manuel Goepfert

Contact : metmap@orbifly.com




SOURCES & CREDITS :

   NOAA